Xunlong5 — BYGW — position and weather

sailwx.info

Track history (hours):
 
Tides and Currents Weather Stations Pressure Air Temp Water Temp Dewpoint Dewpoint Depression Visibility Wind Speed Wind Dir Waves Ship Positions

Xunlong5

Last reported at 2015-Jul-30 02:33 UTC. Time now 2015-Aug-01 03:30 UTC.
Position N 22°19' E 114°06'.

Length 34 m; draft 1.4 m.

Type: High speed craft. MMSI: 413471870.

Date/timePositionNaut miles runAvg speedWind from/ knotsBaromVisibWave heightAir tempDewpointWater temp
2015-Jul-30 02:33N 22°19' E 114°06'8 6.2
2015-Jul-30 01:14N 22°21' E 113°57'811.7
2015-Jul-30 00:33N 22°29' E 113°55'0 0.2
2015-Jul-29 23:33N 22°29' E 113°55'0 0.0
2015-Jul-29 22:27N 22°29' E 113°55'0 0.0
2015-Jul-29 21:33N 22°29' E 113°55'0 0.0
2015-Jul-29 20:27N 22°29' E 113°55'0 0.0
2015-Jul-29 09:24N 22°29' E 113°55'0 0.0
2015-Jul-29 08:30N 22°29' E 113°55'0 0.0
2015-Jul-29 07:30N 22°29' E 113°55'0 0.0
2015-Jul-29 04:06N 22°29' E 113°55'0 0.1
2015-Jul-29 03:33N 22°29' E 113°55'5 5.0
2015-Jul-29 02:34N 22°24' E 113°52'1512.6
2015-Jul-29 01:20N 22°13' E 113°41'6 6.6
2015-Jul-29 00:21N 22°10' E 113°35'0 0.0
2015-Jul-28 23:33N 22°10' E 113°35'0 0.0
2015-Jul-28 16:33N 22°10' E 113°35'0 0.0
2015-Jul-28 15:09N 22°10' E 113°35'0 0.0
2015-Jul-28 14:15N 22°10' E 113°35'0 0.0
2015-Jul-28 12:21N 22°10' E 113°35'2 0.7
2015-Jul-28 09:34N 22°11' E 113°34'1615.6
2015-Jul-28 08:33N 22°25' E 113°43'1 0.5
2015-Jul-28 07:15N 22°24' E 113°43'1521.2
2015-Jul-28 06:33N 22°12' E 113°34'1616.0
2015-Jul-28 05:33N 22°25' E 113°43'17 8.5
2015-Jul-28 03:32N 22°10' E 113°35'1616.8
2015-Jul-28 02:33N 22°25' E 113°43'11 5.4
2015-Jul-28 00:33N 22°15' E 113°38'6 0.8
2015-Jul-27 17:24N 22°10' E 113°35'0 0.0
2015-Jul-27 16:24N 22°10' E 113°35'0 0.0
2015-Jul-27 15:30N 22°10' E 113°35'0 0.0
2015-Jul-27 14:06N 22°10' E 113°35'0 0.0
2015-Jul-27 12:30N 22°10' E 113°35'2 0.7
2015-Jul-27 09:18N 22°12' E 113°34'1519.7
2015-Jul-27 08:33N 22°24' E 113°42'1 0.8
2015-Jul-27 07:15N 22°25' E 113°43'1623.0
2015-Jul-27 06:33N 22°12' E 113°34'1313.2
2015-Jul-27 05:34N 22°23' E 113°41'6 5.1
2015-Jul-27 04:22N 22°28' E 113°45'2024.7
2015-Jul-27 03:34N 22°10' E 113°35'1514.6
2015-Jul-27 02:34N 22°23' E 113°42'8 4.2
2015-Jul-27 00:33N 22°15' E 113°38'6 2.6
2015-Jul-26 22:09N 22°10' E 113°35'0 0.0
2015-Jul-26 21:07N 22°10' E 113°35'0 0.0
2015-Jul-26 20:27N 22°10' E 113°35'0 0.0
2015-Jul-26 19:10N 22°10' E 113°35'0 0.0
2015-Jul-26 18:20N 22°10' E 113°35'0 0.0
2015-Jul-26 17:32N 22°10' E 113°35'0 0.0
2015-Jul-26 16:33N 22°10' E 113°35'0 0.0
2015-Jul-26 15:33N 22°10' E 113°35'0 0.0
2015-Jul-26 14:30N 22°10' E 113°35'0 0.0
2015-Jul-26 13:33N 22°10' E 113°35'0 0.0
2015-Jul-26 12:33N 22°10' E 113°35'2 0.7
2015-Jul-26 09:30N 22°12' E 113°34'0 0.0
2015-Jul-26 06:24N 22°12' E 113°34'2 0.8
2015-Jul-26 03:32N 22°10' E 113°35'6 1.9
2015-Jul-26 00:34N 22°14' E 113°38'6 5.5
2015-Jul-25 23:33N 22°10' E 113°35'0 0.0
2015-Jul-25 22:30N 22°10' E 113°35'0 0.0
2015-Jul-25 20:29N 22°10' E 113°35'0 0.0
2015-Jul-25 19:33N 22°10' E 113°35'0 0.0
2015-Jul-25 18:27N 22°10' E 113°35'0 0.0
2015-Jul-25 17:24N 22°10' E 113°35'0 0.0
2015-Jul-25 16:28N 22°10' E 113°35'0 0.0
2015-Jul-25 15:30N 22°10' E 113°35'0 0.0
2015-Jul-25 14:33N 22°10' E 113°35'0 0.0
2015-Jul-25 13:33N 22°10' E 113°35'0 0.0
2015-Jul-25 12:27N 22°10' E 113°35'2 0.7
2015-Jul-25 09:17N 22°12' E 113°34'0 0.0
2015-Jul-25 06:33N 22°12' E 113°34'2 0.7
2015-Jul-25 03:20N 22°10' E 113°35'6 2.2
2015-Jul-25 00:34N 22°15' E 113°38'6 0.5
2015-Jul-24 12:23N 22°10' E 113°35'6 2.7
2015-Jul-24 10:05N 22°15' E 113°38'5 9.4
2015-Jul-24 09:30N 22°12' E 113°34'1718.1
2015-Jul-24 08:33N 22°26' E 113°44'2 1.3
2015-Jul-24 07:17N 22°25' E 113°43'1621.3
2015-Jul-24 06:33N 22°12' E 113°34'1515.0
2015-Jul-24 05:33N 22°25' E 113°42'0 0.4
2015-Jul-24 04:15N 22°24' E 113°43'2 1.2
2015-Jul-24 02:33N 22°23' E 113°41'5 0.3
2015-Jul-23 08:33N 22°27' E 113°44'4 3.0
2015-Jul-23 07:20N 22°24' E 113°43'1 0.6
2015-Jul-23 05:33N 22°25' E 113°43'0 0.1
2015-Jul-23 04:14N 22°25' E 113°43'1 0.5
2015-Jul-23 02:33N 22°25' E 113°43'17 1.2
2015-Jul-22 12:12N 22°10' E 113°35'2 0.8
2015-Jul-22 09:33N 22°12' E 113°34'1817.6
2015-Jul-22 08:33N 22°27' E 113°44'2 1.6
2015-Jul-22 07:20N 22°25' E 113°43'1617.2
2015-Jul-22 06:25N 22°12' E 113°34'1618.5
2015-Jul-22 05:33N 22°25' E 113°43'1 0.8
2015-Jul-22 04:14N 22°24' E 113°42'1616.5
2015-Jul-22 03:16N 22°10' E 113°35'1521.1
2015-Jul-22 02:33N 22°23' E 113°42'11 5.7
2015-Jul-22 00:33N 22°13' E 113°38'4 0.4
2015-Jul-21 12:13N 22°10' E 113°35'2 0.8
2015-Jul-21 09:33N 22°12' E 113°34'1616.1
2015-Jul-21 08:33N 22°25' E 113°43'1 1.0
2015-Jul-21 07:19N 22°24' E 113°43'1518.1
2015-Jul-21 06:30N 22°12' E 113°34'1516.3
2015-Jul-21 05:33N 22°25' E 113°43'17 8.3
2015-Jul-21 03:33N 22°10' E 113°35'1616.0
2015-Jul-21 02:33N 22°24' E 113°43'12 6.2
2015-Jul-21 00:33N 22°12' E 113°38'4 0.3
2015-Jul-20 12:21N 22°10' E 113°35'2 0.8
2015-Jul-20 09:33N 22°12' E 113°34'1515.5
2015-Jul-20 08:33N 22°25' E 113°43'1 0.5
2015-Jul-20 07:21N 22°25' E 113°43'1619.7
2015-Jul-20 06:33N 22°12' E 113°34'1413.7
2015-Jul-20 05:31N 22°24' E 113°42'15 7.7
2015-Jul-20 03:34N 22°10' E 113°35'  
Track history (hours):
 
Tides and Currents Weather Stations Pressure Air Temp Water Temp Dewpoint Dewpoint Depression Visibility Wind Speed Wind Dir Waves Ship Positions

Xunlong5

Last reported at 2015-Jul-30 02:33 UTC. Time now 2015-Aug-01 03:30 UTC.
Position N 22°19' E 114°06'.

Length 34 m; draft 1.4 m.

Type: High speed craft. MMSI: 413471870.

Date/timePositionNaut miles runAvg speedWind from/ knotsBaromVisibWave heightAir tempDewpointWater temp
2015-Jul-30 02:33N 22°19' E 114°06'8 6.2
2015-Jul-30 01:14N 22°21' E 113°57'811.7
2015-Jul-30 00:33N 22°29' E 113°55'0 0.2
2015-Jul-29 23:33N 22°29' E 113°55'0 0.0
2015-Jul-29 22:27N 22°29' E 113°55'0 0.0
2015-Jul-29 21:33N 22°29' E 113°55'0 0.0
2015-Jul-29 20:27N 22°29' E 113°55'0 0.0
2015-Jul-29 09:24N 22°29' E 113°55'0 0.0
2015-Jul-29 08:30N 22°29' E 113°55'0 0.0
2015-Jul-29 07:30N 22°29' E 113°55'0 0.0
2015-Jul-29 04:06N 22°29' E 113°55'0 0.1
2015-Jul-29 03:33N 22°29' E 113°55'5 5.0
2015-Jul-29 02:34N 22°24' E 113°52'1512.6
2015-Jul-29 01:20N 22°13' E 113°41'6 6.6
2015-Jul-29 00:21N 22°10' E 113°35'0 0.0
2015-Jul-28 23:33N 22°10' E 113°35'0 0.0
2015-Jul-28 16:33N 22°10' E 113°35'0 0.0
2015-Jul-28 15:09N 22°10' E 113°35'0 0.0
2015-Jul-28 14:15N 22°10' E 113°35'0 0.0
2015-Jul-28 12:21N 22°10' E 113°35'2 0.7
2015-Jul-28 09:34N 22°11' E 113°34'1615.6
2015-Jul-28 08:33N 22°25' E 113°43'1 0.5
2015-Jul-28 07:15N 22°24' E 113°43'1521.2
2015-Jul-28 06:33N 22°12' E 113°34'1616.0
2015-Jul-28 05:33N 22°25' E 113°43'17 8.5
2015-Jul-28 03:32N 22°10' E 113°35'1616.8
2015-Jul-28 02:33N 22°25' E 113°43'11 5.4
2015-Jul-28 00:33N 22°15' E 113°38'6 0.8
2015-Jul-27 17:24N 22°10' E 113°35'0 0.0
2015-Jul-27 16:24N 22°10' E 113°35'0 0.0
2015-Jul-27 15:30N 22°10' E 113°35'0 0.0
2015-Jul-27 14:06N 22°10' E 113°35'0 0.0
2015-Jul-27 12:30N 22°10' E 113°35'2 0.7
2015-Jul-27 09:18N 22°12' E 113°34'1519.7
2015-Jul-27 08:33N 22°24' E 113°42'1 0.8
2015-Jul-27 07:15N 22°25' E 113°43'1623.0
2015-Jul-27 06:33N 22°12' E 113°34'1313.2
2015-Jul-27 05:34N 22°23' E 113°41'6 5.1
2015-Jul-27 04:22N 22°28' E 113°45'2024.7
2015-Jul-27 03:34N 22°10' E 113°35'1514.6
2015-Jul-27 02:34N 22°23' E 113°42'8 4.2
2015-Jul-27 00:33N 22°15' E 113°38'6 2.6
2015-Jul-26 22:09N 22°10' E 113°35'0 0.0
2015-Jul-26 21:07N 22°10' E 113°35'0 0.0
2015-Jul-26 20:27N 22°10' E 113°35'0 0.0
2015-Jul-26 19:10N 22°10' E 113°35'0 0.0
2015-Jul-26 18:20N 22°10' E 113°35'0 0.0
2015-Jul-26 17:32N 22°10' E 113°35'0 0.0
2015-Jul-26 16:33N 22°10' E 113°35'0 0.0
2015-Jul-26 15:33N 22°10' E 113°35'0 0.0
2015-Jul-26 14:30N 22°10' E 113°35'0 0.0
2015-Jul-26 13:33N 22°10' E 113°35'0 0.0
2015-Jul-26 12:33N 22°10' E 113°35'2 0.7
2015-Jul-26 09:30N 22°12' E 113°34'0 0.0
2015-Jul-26 06:24N 22°12' E 113°34'2 0.8
2015-Jul-26 03:32N 22°10' E 113°35'6 1.9
2015-Jul-26 00:34N 22°14' E 113°38'6 5.5
2015-Jul-25 23:33N 22°10' E 113°35'0 0.0
2015-Jul-25 22:30N 22°10' E 113°35'0 0.0
2015-Jul-25 20:29N 22°10' E 113°35'0 0.0
2015-Jul-25 19:33N 22°10' E 113°35'0 0.0
2015-Jul-25 18:27N 22°10' E 113°35'0 0.0
2015-Jul-25 17:24N 22°10' E 113°35'0 0.0
2015-Jul-25 16:28N 22°10' E 113°35'0 0.0
2015-Jul-25 15:30N 22°10' E 113°35'0 0.0
2015-Jul-25 14:33N 22°10' E 113°35'0 0.0
2015-Jul-25 13:33N 22°10' E 113°35'0 0.0
2015-Jul-25 12:27N 22°10' E 113°35'2 0.7
2015-Jul-25 09:17N 22°12' E 113°34'0 0.0
2015-Jul-25 06:33N 22°12' E 113°34'2 0.7
2015-Jul-25 03:20N 22°10' E 113°35'6 2.2
2015-Jul-25 00:34N 22°15' E 113°38'6 0.5
2015-Jul-24 12:23N 22°10' E 113°35'6 2.7
2015-Jul-24 10:05N 22°15' E 113°38'5 9.4
2015-Jul-24 09:30N 22°12' E 113°34'1718.1
2015-Jul-24 08:33N 22°26' E 113°44'2 1.3
2015-Jul-24 07:17N 22°25' E 113°43'1621.3
2015-Jul-24 06:33N 22°12' E 113°34'1515.0
2015-Jul-24 05:33N 22°25' E 113°42'0 0.4
2015-Jul-24 04:15N 22°24' E 113°43'2 1.2
2015-Jul-24 02:33N 22°23' E 113°41'5 0.3
2015-Jul-23 08:33N 22°27' E 113°44'4 3.0
2015-Jul-23 07:20N 22°24' E 113°43'1 0.6
2015-Jul-23 05:33N 22°25' E 113°43'0 0.1
2015-Jul-23 04:14N 22°25' E 113°43'1 0.5
2015-Jul-23 02:33N 22°25' E 113°43'17 1.2
2015-Jul-22 12:12N 22°10' E 113°35'2 0.8
2015-Jul-22 09:33N 22°12' E 113°34'1817.6
2015-Jul-22 08:33N 22°27' E 113°44'2 1.6
2015-Jul-22 07:20N 22°25' E 113°43'1617.2
2015-Jul-22 06:25N 22°12' E 113°34'1618.5
2015-Jul-22 05:33N 22°25' E 113°43'1 0.8
2015-Jul-22 04:14N 22°24' E 113°42'1616.5
2015-Jul-22 03:16N 22°10' E 113°35'1521.1
2015-Jul-22 02:33N 22°23' E 113°42'11 5.7
2015-Jul-22 00:33N 22°13' E 113°38'4 0.4
2015-Jul-21 12:13N 22°10' E 113°35'2 0.8
2015-Jul-21 09:33N 22°12' E 113°34'1616.1
2015-Jul-21 08:33N 22°25' E 113°43'1 1.0
2015-Jul-21 07:19N 22°24' E 113°43'1518.1
2015-Jul-21 06:30N 22°12' E 113°34'1516.3
2015-Jul-21 05:33N 22°25' E 113°43'17 8.3
2015-Jul-21 03:33N 22°10' E 113°35'1616.0
2015-Jul-21 02:33N 22°24' E 113°43'12 6.2
2015-Jul-21 00:33N 22°12' E 113°38'4 0.3
2015-Jul-20 12:21N 22°10' E 113°35'2 0.8
2015-Jul-20 09:33N 22°12' E 113°34'1515.5
2015-Jul-20 08:33N 22°25' E 113°43'1 0.5
2015-Jul-20 07:21N 22°25' E 113°43'1619.7
2015-Jul-20 06:33N 22°12' E 113°34'1413.7
2015-Jul-20 05:31N 22°24' E 113°42'15 7.7
2015-Jul-20 03:34N 22°10' E 113°35'  

Dump ship's entire track history